createdAt,value
2023-03-29T00:01:00.859Z,1.00
2023-03-29T00:06:03.662Z,1.30
2023-03-29T00:11:06.179Z,1.20
2023-03-29T00:16:08.919Z,1.20
2023-03-29T00:21:11.628Z,1.40
2023-03-29T00:26:13.811Z,1.75
2023-03-29T00:31:17.553Z,2.22
2023-03-29T00:36:19.974Z,1.40
2023-03-29T00:41:22.729Z,1.62
2023-03-29T00:46:26.543Z,1.40
2023-03-29T00:51:36.156Z,1.80
2023-03-29T00:56:41.632Z,1.55
2023-03-29T01:01:50.575Z,1.40
2023-03-29T01:07:00.626Z,1.48
2023-03-29T01:12:09.587Z,1.73
2023-03-29T01:17:12.947Z,1.60
2023-03-29T01:22:28.430Z,1.80
2023-03-29T01:27:43.988Z,1.97
2023-03-29T01:32:59.287Z,1.70
2023-03-29T01:38:35.860Z,1.80
2023-03-29T01:43:37.988Z,1.48
2023-03-29T01:49:12.538Z,1.60
2023-03-29T01:54:24.229Z,1.70
2023-03-29T01:59:32.377Z,1.20
2023-03-29T02:04:39.625Z,1.80
2023-03-29T02:09:42.779Z,1.73
2023-03-29T02:14:45.160Z,1.87
2023-03-29T02:19:52.202Z,1.60
2023-03-29T02:24:59.355Z,1.52
2023-03-29T02:30:01.930Z,1.80
2023-03-29T02:35:15.985Z,1.62
2023-03-29T02:40:20.980Z,1.75
2023-03-29T02:45:25.364Z,1.53
2023-03-29T02:50:30.767Z,1.62
2023-03-29T02:55:34.978Z,1.95
2023-03-29T03:00:40.930Z,1.90
2023-03-29T03:05:43.601Z,2.22
2023-03-29T03:10:45.937Z,2.00
2023-03-29T03:15:49.357Z,2.40
2023-03-29T03:20:56.865Z,2.33
2023-03-29T03:25:59.235Z,2.25
2023-03-29T03:31:01.760Z,2.42
2023-03-29T03:36:06.251Z,2.40
2023-03-29T03:41:09.114Z,2.60
2023-03-29T03:46:11.361Z,2.15
2023-03-29T03:51:14.183Z,2.30
2023-03-29T03:56:16.466Z,2.58
2023-03-29T04:01:19.754Z,2.63
2023-03-29T04:06:22.677Z,2.53
2023-03-29T04:11:25.736Z,2.80
2023-03-29T04:16:28.626Z,2.45
2023-03-29T04:21:30.948Z,2.85
2023-03-29T04:26:34.385Z,2.60
2023-03-29T04:31:36.757Z,3.03
2023-03-29T04:36:39.195Z,2.60
2023-03-29T04:41:41.688Z,3.25
2023-03-29T04:46:43.934Z,3.42
2023-03-29T04:51:47.838Z,3.00
2023-03-29T04:56:52.254Z,3.30
2023-03-29T05:01:54.771Z,3.70
2023-03-29T05:06:57.495Z,3.87
2023-03-29T05:11:59.706Z,3.37
2023-03-29T05:17:01.904Z,3.60
2023-03-29T05:22:04.195Z,3.42
2023-03-29T05:27:06.469Z,5.00
2023-03-29T05:32:08.855Z,3.87
2023-03-29T05:37:11.147Z,3.50
2023-03-29T05:42:15.669Z,2.80
2023-03-29T05:47:17.924Z,3.25
2023-03-29T05:52:20.311Z,3.00
2023-03-29T05:57:23.266Z,2.67
2023-03-29T06:02:26.124Z,2.50
2023-03-29T06:07:28.365Z,2.43
2023-03-29T06:12:31.072Z,2.72
2023-03-29T06:17:33.947Z,2.62
2023-03-29T06:22:36.649Z,2.80
2023-03-29T06:27:38.785Z,2.50
2023-03-29T06:32:42.073Z,2.60
2023-03-29T06:37:50.074Z,2.90
2023-03-29T06:42:59.602Z,2.55
2023-03-29T06:48:03.311Z,2.70
2023-03-29T06:53:05.574Z,2.92
2023-03-29T06:58:09.285Z,3.27
2023-03-29T07:03:14.858Z,4.20
2023-03-29T07:08:17.250Z,3.70
2023-03-29T07:13:19.535Z,3.70
2023-03-29T07:18:21.903Z,3.30
2023-03-29T07:23:24.259Z,2.97
2023-03-29T07:28:26.400Z,2.62
2023-03-29T07:33:28.629Z,2.55
2023-03-29T07:38:32.493Z,2.55
2023-03-29T07:43:35.336Z,2.08
2023-03-29T07:48:37.499Z,1.90
2023-03-29T07:53:40.013Z,2.10
2023-03-29T07:58:42.258Z,1.62
2023-03-29T08:03:45.840Z,2.30
2023-03-29T08:08:48.165Z,2.10
2023-03-29T08:13:51.683Z,2.20
2023-03-29T08:18:53.974Z,2.00
2023-03-29T08:23:56.167Z,1.60
2023-03-29T08:28:58.367Z,1.60
2023-03-29T08:34:00.838Z,1.83
2023-03-29T08:39:03.525Z,1.50
2023-03-29T08:44:33.102Z,1.40
2023-03-29T08:49:38.110Z,2.08
2023-03-29T08:54:45.157Z,2.50
2023-03-29T08:59:54.187Z,2.83
2023-03-29T09:05:29.652Z,2.70
2023-03-29T09:10:43.802Z,2.87
2023-03-29T09:16:06.215Z,3.25
2023-03-29T09:21:08.483Z,3.93
2023-03-29T09:26:41.853Z,3.17
2023-03-29T09:31:44.913Z,2.33
2023-03-29T09:36:58.830Z,2.78
2023-03-29T09:42:05.556Z,2.50
2023-03-29T09:47:19.322Z,2.57
2023-03-29T09:52:21.703Z,2.62
2023-03-29T09:57:24.035Z,2.63
2023-03-29T10:02:31.616Z,2.80
2023-03-29T10:07:44.618Z,3.30
2023-03-29T10:12:54.059Z,3.00
2023-03-29T10:18:06.987Z,3.17
2023-03-29T10:23:18.292Z,3.03
2023-03-29T10:28:22.832Z,3.30
2023-03-29T10:33:30.088Z,3.22
2023-03-29T10:38:35.646Z,3.20
2023-03-29T10:43:58.610Z,4.00
2023-03-29T10:49:10.343Z,3.90
2023-03-29T10:54:16.159Z,3.78
2023-03-29T10:59:29.410Z,4.20
2023-03-29T11:04:52.723Z,4.27
2023-03-29T11:10:21.458Z,4.10
2023-03-29T11:15:47.058Z,4.00
2023-03-29T11:21:31.045Z,4.47
2023-03-29T11:26:54.217Z,4.07
2023-03-29T11:32:25.461Z,5.00
2023-03-29T11:38:05.733Z,5.70
2023-03-29T11:43:43.174Z,4.80
2023-03-29T11:48:53.080Z,4.62
2023-03-29T11:54:08.104Z,4.72
2023-03-29T11:59:25.522Z,3.90
2023-03-29T12:04:34.216Z,4.18
2023-03-29T12:09:36.663Z,3.63
2023-03-29T12:14:57.120Z,4.00
2023-03-29T12:20:15.258Z,4.07
2023-03-29T12:25:23.531Z,4.07
2023-03-29T12:31:03.994Z,3.75
2023-03-29T12:36:52.011Z,3.67
2023-03-29T12:42:04.696Z,3.45
2023-03-29T12:47:12.990Z,3.70
2023-03-29T12:52:27.145Z,3.40
2023-03-29T12:57:44.365Z,3.45
2023-03-29T13:03:19.977Z,4.10
2023-03-29T13:08:34.047Z,3.42
2023-03-29T13:13:38.222Z,3.58
2023-03-29T13:19:11.979Z,3.90
2023-03-29T13:24:16.840Z,3.53
2023-03-29T13:29:48.105Z,4.03
2023-03-29T13:35:01.936Z,4.20
2023-03-29T13:40:27.089Z,4.20
2023-03-29T13:45:32.543Z,4.17
2023-03-29T13:50:53.768Z,3.55
2023-03-29T13:55:58.566Z,4.30
2023-03-29T14:01:27.094Z,4.20
2023-03-29T14:06:36.712Z,3.75
2023-03-29T14:11:44.354Z,3.83
2023-03-29T14:16:46.856Z,3.25
2023-03-29T14:21:51.383Z,4.07
2023-03-29T14:26:55.423Z,4.20
2023-03-29T14:32:09.678Z,3.33
2023-03-29T14:37:15.810Z,3.90
2023-03-29T14:42:23.595Z,3.33
2023-03-29T14:47:30.970Z,3.73
2023-03-29T14:52:34.501Z,3.40
2023-03-29T14:57:37.933Z,2.90
2023-03-29T15:02:49.753Z,3.97
2023-03-29T15:07:56.042Z,3.30
2023-03-29T15:13:02.172Z,3.47
2023-03-29T15:18:07.498Z,4.20
2023-03-29T15:23:15.935Z,4.05
2023-03-29T15:28:55.558Z,3.60
2023-03-29T15:34:09.419Z,3.90
2023-03-29T15:39:17.151Z,3.80
2023-03-29T15:44:32.905Z,3.30
2023-03-29T15:49:35.105Z,3.10
2023-03-29T15:54:38.991Z,3.20
2023-03-29T15:59:42.068Z,3.20
2023-03-29T16:04:44.366Z,3.20
2023-03-29T16:09:47.227Z,2.97
2023-03-29T16:14:49.518Z,3.10
2023-03-29T16:19:51.809Z,2.75
2023-03-29T16:24:55.016Z,3.20
2023-03-29T16:29:58.877Z,2.80
2023-03-29T16:35:01.073Z,3.10
2023-03-29T16:40:07.322Z,3.20
2023-03-29T16:45:13.288Z,3.60
2023-03-29T16:50:18.961Z,3.40
2023-03-29T16:55:21.339Z,3.13
2023-03-29T17:00:24.029Z,3.45
2023-03-29T17:05:26.429Z,3.40
2023-03-29T17:10:28.624Z,3.67
2023-03-29T17:15:30.863Z,3.60
2023-03-29T17:20:33.107Z,3.13
2023-03-29T17:25:35.576Z,2.97
2023-03-29T17:30:38.073Z,3.53
2023-03-29T17:35:44.451Z,2.80
2023-03-29T17:40:55.340Z,2.65
2023-03-29T17:45:57.526Z,2.40
2023-03-29T17:50:59.867Z,1.92
2023-03-29T17:56:02.370Z,1.85
2023-03-29T18:01:09.357Z,1.10
2023-03-29T18:06:12.283Z,1.12
2023-03-29T18:11:22.645Z,1.50
2023-03-29T18:16:25.093Z,1.23
2023-03-29T18:21:30.309Z,1.60
2023-03-29T18:26:35.210Z,1.48
2023-03-29T18:31:37.458Z,1.58
2023-03-29T18:36:39.761Z,1.37
2023-03-29T18:41:42.089Z,1.50
2023-03-29T18:46:44.392Z,1.40
2023-03-29T18:51:49.686Z,1.60
2023-03-29T18:56:52.483Z,1.40
2023-03-29T19:01:54.980Z,1.67
2023-03-29T19:06:57.350Z,1.80
2023-03-29T19:11:59.746Z,2.00
2023-03-29T19:17:01.915Z,1.90
2023-03-29T19:22:04.247Z,2.17
2023-03-29T19:27:06.647Z,2.20
2023-03-29T19:32:09.016Z,1.90
2023-03-29T19:37:11.208Z,2.25
2023-03-29T19:42:13.496Z,1.80
2023-03-29T19:47:15.769Z,1.77
2023-03-29T19:52:17.957Z,2.00
2023-03-29T19:57:20.604Z,1.70
2023-03-29T20:02:23.526Z,2.05
2023-03-29T20:07:25.847Z,1.98
2023-03-29T20:12:28.036Z,2.05
2023-03-29T20:17:30.344Z,2.37
2023-03-29T20:22:32.821Z,2.10
2023-03-29T20:27:35.748Z,2.20
2023-03-29T20:32:38.439Z,2.25
2023-03-29T20:37:40.837Z,2.12
2023-03-29T20:42:46.244Z,2.30
2023-03-29T20:47:57.699Z,2.00
2023-03-29T20:53:03.870Z,2.35
2023-03-29T20:58:07.848Z,2.05
2023-03-29T21:03:10.126Z,1.85
2023-03-29T21:08:12.424Z,2.10
2023-03-29T21:13:14.586Z,2.20
2023-03-29T21:18:16.805Z,1.80
2023-03-29T21:23:19.026Z,2.35
2023-03-29T21:28:21.615Z,2.78
2023-03-29T21:33:23.839Z,3.20
2023-03-29T21:38:26.624Z,4.07
2023-03-29T21:43:29.197Z,4.12
2023-03-29T21:48:31.814Z,4.68
2023-03-29T21:53:34.592Z,5.22
2023-03-29T21:58:38.569Z,4.80
2023-03-29T22:03:40.752Z,5.40
2023-03-29T22:08:42.877Z,5.10
2023-03-29T22:13:47.039Z,5.30
2023-03-29T22:18:50.162Z,5.47
2023-03-29T22:23:55.026Z,5.60
2023-03-29T22:28:59.075Z,5.70
2023-03-29T22:34:02.817Z,6.32
2023-03-29T22:39:06.671Z,5.68
2023-03-29T22:44:10.470Z,5.25
2023-03-29T22:49:13.304Z,5.67
2023-03-29T22:54:16.720Z,6.37
2023-03-29T22:59:19.064Z,6.60
2023-03-29T23:04:21.453Z,6.25
2023-03-29T23:09:23.773Z,6.97
2023-03-29T23:14:26.010Z,6.20
2023-03-29T23:19:28.158Z,6.65
2023-03-29T23:24:30.474Z,6.30
2023-03-29T23:29:36.600Z,6.87
2023-03-29T23:34:39.602Z,7.35
2023-03-29T23:39:41.813Z,7.00
2023-03-29T23:44:44.071Z,7.62
2023-03-29T23:49:46.884Z,7.47
2023-03-29T23:54:50.474Z,6.97
2023-03-29T23:59:55.860Z,6.20
